createdAt,value
2017-05-18T00:00:06.365Z,67
2017-05-18T00:10:06.408Z,67.5
2017-05-18T00:20:06.373Z,67
2017-05-18T00:30:06.370Z,67
2017-05-18T00:40:06.404Z,67
2017-05-18T00:50:04.402Z,67
2017-05-18T01:00:06.376Z,67
2017-05-18T01:10:06.370Z,66.4
2017-05-18T01:20:06.399Z,67
2017-05-18T01:30:06.368Z,67
2017-05-18T01:40:04.876Z,67
2017-05-18T01:50:06.371Z,67
2017-05-18T02:00:03.409Z,67
2017-05-18T02:10:06.369Z,67
2017-05-18T02:20:06.390Z,67
2017-05-18T02:30:03.898Z,67
2017-05-18T02:40:06.366Z,67
2017-05-18T02:50:04.285Z,66.4
2017-05-18T03:00:06.371Z,66.4
2017-05-18T03:10:06.396Z,65.9
2017-05-18T03:20:01.875Z,65.9
2017-05-18T03:30:06.368Z,66.4
2017-05-18T03:40:06.367Z,67
2017-05-18T03:50:06.365Z,65.9
2017-05-18T04:00:06.365Z,65.9
2017-05-18T04:10:06.369Z,65.9
2017-05-18T04:20:06.367Z,65.9
2017-05-18T04:30:06.398Z,66.4
2017-05-18T04:40:06.364Z,65.9
2017-05-18T04:50:06.369Z,65.9
2017-05-18T05:00:06.363Z,65.9
2017-05-18T05:10:06.396Z,65.9
2017-05-18T05:20:06.392Z,65.9
2017-05-18T05:30:06.366Z,66.4
2017-05-18T05:40:06.368Z,66.4
2017-05-18T05:50:06.380Z,66.4
2017-05-18T06:00:06.367Z,66.4
2017-05-18T06:10:03.569Z,67
2017-05-18T06:20:06.373Z,66.4
2017-05-18T06:30:06.372Z,67
2017-05-18T06:40:06.397Z,67
2017-05-18T06:50:06.369Z,65.9
2017-05-18T07:00:02.316Z,66.4
2017-05-18T07:10:06.392Z,67
2017-05-18T07:20:06.371Z,66.4
2017-05-18T07:30:06.369Z,66.4
2017-05-18T07:40:06.396Z,65.9
2017-05-18T07:50:06.367Z,66.4
2017-05-18T08:00:06.367Z,66.4
2017-05-18T08:10:06.368Z,66.4
2017-05-18T08:20:06.364Z,65.9
2017-05-18T08:30:06.369Z,65.9
2017-05-18T08:40:06.367Z,66.4
2017-05-18T08:50:06.396Z,66.4
2017-05-18T09:00:06.371Z,65.9
2017-05-18T09:10:06.376Z,65.9
2017-05-18T09:20:06.366Z,66.4
2017-05-18T09:30:06.408Z,65.9
2017-05-18T09:40:06.370Z,65.9
2017-05-18T09:50:02.138Z,66.4
2017-05-18T10:00:06.368Z,66.4
2017-05-18T10:10:02.527Z,66.4
2017-05-18T10:20:06.398Z,66.4
2017-05-18T10:30:06.394Z,66.4
2017-05-18T10:40:06.429Z,66.4
2017-05-18T10:50:06.371Z,66.4
2017-05-18T11:00:06.406Z,67
2017-05-18T11:10:06.368Z,66.4
2017-05-18T11:20:05.887Z,66.4
2017-05-18T11:30:06.368Z,65.9
2017-05-18T11:40:06.367Z,66.4
2017-05-18T11:50:06.369Z,66.4
2017-05-18T12:00:06.399Z,65.9
2017-05-18T12:10:06.398Z,66.4
2017-05-18T12:20:06.371Z,66.4
2017-05-18T12:30:06.367Z,67
2017-05-18T12:40:06.456Z,66.4
2017-05-18T12:50:06.370Z,65.9
2017-05-18T13:00:06.367Z,65.9
2017-05-18T13:10:06.398Z,65.9
2017-05-18T13:20:06.371Z,65.9
2017-05-18T13:30:06.396Z,65.4
2017-05-18T13:40:06.367Z,65.9
2017-05-18T13:50:06.396Z,65.9
2017-05-18T14:00:06.369Z,65.9
2017-05-18T14:10:06.362Z,65.9
2017-05-18T14:20:06.401Z,65.4
2017-05-18T14:30:06.408Z,65.4
2017-05-18T14:40:06.371Z,65.9
2017-05-18T14:50:06.395Z,65.9
2017-05-18T15:00:06.366Z,65.9
2017-05-18T15:10:06.373Z,65.9
2017-05-18T15:20:06.373Z,64.8
2017-05-18T15:30:06.422Z,65.4
2017-05-18T15:40:06.362Z,65.4
2017-05-18T15:50:06.377Z,65.4
2017-05-18T16:00:06.364Z,65.4
2017-05-18T16:10:06.362Z,64.8
2017-05-18T16:20:06.363Z,65.4
2017-05-18T16:30:06.392Z,65.4
2017-05-18T16:40:06.444Z,65.4
2017-05-18T16:50:06.363Z,65.4
2017-05-18T17:00:06.368Z,65.4
2017-05-18T17:10:06.360Z,64.8
2017-05-18T17:20:06.403Z,64.8
2017-05-18T17:30:06.396Z,64.8
2017-05-18T17:40:06.398Z,64.8
2017-05-18T17:50:06.389Z,64.8
2017-05-18T18:00:06.392Z,64.3
2017-05-18T18:10:06.361Z,65.4
2017-05-18T18:20:06.368Z,64.8
2017-05-18T18:30:06.372Z,64.8
2017-05-18T18:40:06.398Z,64.8
2017-05-18T18:50:06.367Z,64.3
2017-05-18T19:00:06.396Z,63.8
2017-05-18T19:10:01.858Z,64.3
2017-05-18T19:20:06.369Z,63.8
2017-05-18T19:30:06.369Z,64.3
2017-05-18T19:40:06.366Z,63.8
2017-05-18T19:50:06.399Z,64.3
2017-05-18T20:00:06.362Z,64.8
2017-05-18T20:10:06.366Z,64.8
2017-05-18T20:20:06.365Z,63.8
2017-05-18T20:30:06.362Z,63.8
2017-05-18T20:40:06.365Z,63.8
2017-05-18T20:50:06.395Z,64.3
2017-05-18T21:00:06.402Z,63.8
2017-05-18T21:10:06.360Z,63.8
2017-05-18T21:20:06.361Z,63.8
2017-05-18T21:30:06.360Z,63.8
2017-05-18T21:40:06.372Z,63.8
2017-05-18T21:50:06.407Z,63.8
2017-05-18T22:00:06.395Z,63.8
2017-05-18T22:10:06.369Z,63.8
2017-05-18T22:20:06.389Z,63.8
2017-05-18T22:30:06.358Z,63.2
2017-05-18T22:40:06.361Z,63.8
2017-05-18T22:50:06.400Z,62.7
2017-05-18T23:00:06.366Z,62.7
2017-05-18T23:10:06.392Z,63.8
2017-05-18T23:20:06.393Z,63.2
2017-05-18T23:30:06.357Z,63.8
2017-05-18T23:40:06.390Z,63.2
2017-05-18T23:50:06.358Z,63.2
